createdAt,value
2018-03-24T00:02:18.706Z,1.60
2018-03-24T00:04:48.055Z,1.50
2018-03-24T00:07:17.183Z,1.40
2018-03-24T00:09:45.525Z,1.40
2018-03-24T00:12:14.755Z,1.20
2018-03-24T00:14:43.178Z,1.20
2018-03-24T00:17:12.479Z,1.20
2018-03-24T00:19:40.907Z,1.10
2018-03-24T00:22:10.174Z,1.20
2018-03-24T00:24:38.675Z,1.20
2018-03-24T00:27:07.898Z,1.30
2018-03-24T00:29:36.291Z,1.30
2018-03-24T00:32:04.696Z,1.30
2018-03-24T00:34:33.024Z,1.30
2018-03-24T00:37:02.103Z,1.20
2018-03-24T00:39:30.408Z,1.20
2018-03-24T00:41:59.477Z,1.10
2018-03-24T00:44:27.827Z,1.10
2018-03-24T00:46:56.941Z,0.90
2018-03-24T00:49:26.108Z,0.80
2018-03-24T00:51:54.441Z,0.80
2018-03-24T00:54:23.510Z,0.60
2018-03-24T00:56:51.831Z,0.60
2018-03-24T00:59:20.196Z,0.50
2018-03-24T01:01:48.750Z,0.30
2018-03-24T01:04:17.844Z,0.00
2018-03-24T01:06:46.223Z,0.00
2018-03-24T01:09:15.496Z,-0.20
2018-03-24T01:11:43.911Z,-0.20
2018-03-24T01:14:13.032Z,-0.40
2018-03-24T01:16:42.529Z,-0.50
2018-03-24T01:19:10.922Z,-0.50
2018-03-24T01:21:39.473Z,-0.60
2018-03-24T01:24:08.736Z,-0.70
2018-03-24T01:26:38.517Z,-0.80
2018-03-24T01:29:08.751Z,-0.90
2018-03-24T01:31:38.037Z,-1.00
2018-03-24T01:34:06.382Z,-1.00
2018-03-24T01:36:34.711Z,-1.10
2018-03-24T01:39:03.903Z,-1.10
2018-03-24T01:41:32.218Z,-1.10
2018-03-24T01:44:01.316Z,-1.30
2018-03-24T01:46:30.434Z,-1.30
2018-03-24T01:48:59.521Z,-1.40
2018-03-24T01:51:28.067Z,-1.40
2018-03-24T01:53:56.411Z,-1.30
2018-03-24T01:56:24.721Z,-1.30
2018-03-24T01:58:53.790Z,-1.50
2018-03-24T02:01:22.111Z,-1.50
2018-03-24T02:03:51.177Z,-1.70
2018-03-24T02:06:19.499Z,-1.80
2018-03-24T02:08:47.932Z,-1.80
2018-03-24T02:11:17.157Z,-1.90
2018-03-24T02:13:45.476Z,-1.90
2018-03-24T02:16:13.867Z,-1.90
2018-03-24T02:18:43.130Z,-2.10
2018-03-24T02:21:12.472Z,-2.20
2018-03-24T02:23:40.879Z,-2.20
2018-03-24T02:26:09.357Z,-2.20
2018-03-24T02:28:37.885Z,-2.30
2018-03-24T02:31:07.636Z,-2.20
2018-03-24T02:33:36.028Z,-2.30
2018-03-24T02:36:05.222Z,-2.20
2018-03-24T02:38:33.580Z,-2.20
2018-03-24T02:41:01.915Z,-2.20
2018-03-24T02:43:30.989Z,-2.10
2018-03-24T02:45:59.295Z,-2.10
2018-03-24T02:48:27.674Z,-2.10
2018-03-24T02:50:56.031Z,-2.10
2018-03-24T02:53:24.346Z,-2.10
2018-03-24T02:55:52.663Z,-2.00
2018-03-24T02:58:20.972Z,-2.00
2018-03-24T03:00:50.092Z,-1.90
2018-03-24T03:03:18.412Z,-1.90
2018-03-24T03:05:46.809Z,-1.80
2018-03-24T03:08:15.176Z,-1.60
2018-03-24T03:10:43.546Z,-1.40
2018-03-24T03:13:12.728Z,-1.20
2018-03-24T03:15:41.191Z,-1.20
2018-03-24T03:18:09.790Z,-1.10
2018-03-24T03:20:38.962Z,-1.10
2018-03-24T03:23:07.475Z,-1.10
2018-03-24T03:25:35.890Z,-1.00
2018-03-24T03:28:04.995Z,-0.90
2018-03-24T03:30:34.743Z,-0.90
2018-03-24T03:33:03.144Z,-0.80
2018-03-24T03:35:31.450Z,-0.70
2018-03-24T03:38:00.631Z,-0.50
2018-03-24T03:40:29.030Z,-0.50
2018-03-24T03:42:57.339Z,-0.50
2018-03-24T03:45:25.711Z,-0.40
2018-03-24T03:47:54.028Z,-0.40
2018-03-24T03:50:23.099Z,-0.20
2018-03-24T03:52:51.407Z,-0.20
2018-03-24T03:55:19.710Z,-0.10
2018-03-24T03:57:48.051Z,0.00
2018-03-24T04:03:17.312Z,0.30
2018-03-24T04:05:45.639Z,0.20
2018-03-24T04:08:14.799Z,0.40
2018-03-24T04:10:43.187Z,0.30
2018-03-24T04:13:11.549Z,0.40
2018-03-24T04:15:40.836Z,0.40
2018-03-24T04:18:09.313Z,0.50
2018-03-24T04:20:37.776Z,0.60
2018-03-24T04:23:06.915Z,0.60
2018-03-24T04:25:35.280Z,0.60
2018-03-24T04:28:04.383Z,0.50
2018-03-24T04:30:32.847Z,0.50
2018-03-24T04:33:01.940Z,0.50
2018-03-24T04:35:30.282Z,0.50
2018-03-24T04:37:59.355Z,0.40
2018-03-24T04:40:28.428Z,0.30
2018-03-24T04:42:56.743Z,0.30
2018-03-24T04:45:25.035Z,0.20
2018-03-24T04:47:53.336Z,0.10
2018-03-24T04:50:22.411Z,-0.20
2018-03-24T04:52:50.780Z,-0.20
2018-03-24T04:55:19.108Z,-0.40
2018-03-24T04:57:47.466Z,-0.50
2018-03-24T05:00:15.831Z,-0.50
2018-03-24T05:02:44.187Z,-0.30
2018-03-24T05:05:12.690Z,-0.20
2018-03-24T05:07:41.072Z,0.00
2018-03-24T05:10:10.316Z,0.20
2018-03-24T05:12:39.045Z,0.20
2018-03-24T05:15:08.354Z,0.20
2018-03-24T05:17:36.706Z,0.20
2018-03-24T05:20:05.099Z,0.30
2018-03-24T05:22:35.071Z,0.20
2018-03-24T05:25:03.747Z,0.20
2018-03-24T05:27:32.048Z,0.30
2018-03-24T05:30:01.122Z,0.30
2018-03-24T05:32:30.191Z,0.30
2018-03-24T05:34:58.710Z,0.30
2018-03-24T05:37:27.082Z,0.30
2018-03-24T05:39:55.397Z,0.30
2018-03-24T05:42:23.696Z,0.40
2018-03-24T05:44:52.808Z,0.40
2018-03-24T05:47:21.896Z,0.40
2018-03-24T05:49:50.351Z,0.40
2018-03-24T05:52:18.685Z,0.40
2018-03-24T05:54:47.000Z,0.40
2018-03-24T05:57:16.319Z,0.40
2018-03-24T05:59:44.688Z,0.50
2018-03-24T06:02:13.353Z,0.50
2018-03-24T06:04:41.787Z,0.50
2018-03-24T06:07:11.061Z,0.60
2018-03-24T06:09:39.448Z,0.60
2018-03-24T06:12:08.702Z,0.70
2018-03-24T06:14:38.024Z,0.70
2018-03-24T06:17:06.401Z,0.70
2018-03-24T06:19:34.799Z,0.80
2018-03-24T06:22:03.898Z,0.90
2018-03-24T06:24:32.216Z,0.90
2018-03-24T06:27:01.894Z,1.00
2018-03-24T06:29:30.785Z,1.10
2018-03-24T06:32:00.482Z,1.20
2018-03-24T06:34:30.027Z,1.20
2018-03-24T06:39:53.487Z,1.30
2018-03-24T06:42:21.862Z,1.20
2018-03-24T06:44:50.391Z,1.30
2018-03-24T06:47:18.667Z,1.40
2018-03-24T06:49:47.746Z,1.60
2018-03-24T06:52:16.047Z,1.60
2018-03-24T06:54:44.453Z,1.80
2018-03-24T06:57:13.168Z,1.90
2018-03-24T06:59:41.702Z,1.90
2018-03-24T07:02:10.566Z,2.00
2018-03-24T07:04:39.860Z,2.30
2018-03-24T07:07:08.867Z,2.30
2018-03-24T07:09:40.625Z,2.30
2018-03-24T07:12:09.636Z,2.40
2018-03-24T07:14:38.794Z,2.60
2018-03-24T07:17:07.847Z,2.60
2018-03-24T07:19:36.847Z,2.80
2018-03-24T07:22:06.034Z,2.90
2018-03-24T07:24:34.767Z,3.00
2018-03-24T07:27:03.084Z,3.10
2018-03-24T07:29:32.163Z,3.10
2018-03-24T07:32:00.468Z,3.10
2018-03-24T07:34:29.557Z,2.90
2018-03-24T07:36:57.871Z,2.90
2018-03-24T07:39:27.019Z,3.20
2018-03-24T07:41:55.323Z,3.10
2018-03-24T07:44:23.640Z,3.30
2018-03-24T07:46:51.933Z,3.40
2018-03-24T07:49:20.239Z,3.60
2018-03-24T07:51:48.659Z,3.40
2018-03-24T07:56:51.560Z,3.40
2018-03-24T07:59:20.702Z,3.80
2018-03-24T08:01:49.039Z,3.80
2018-03-24T08:04:17.409Z,3.90
2018-03-24T08:06:46.472Z,4.10
2018-03-24T08:09:15.606Z,4.10
2018-03-24T08:11:44.128Z,4.10
2018-03-24T08:14:12.468Z,4.20
2018-03-24T08:16:40.807Z,4.30
2018-03-24T08:19:10.198Z,4.40
2018-03-24T08:21:38.567Z,4.30
2018-03-24T08:24:07.040Z,4.40
2018-03-24T08:26:36.173Z,4.30
2018-03-24T08:29:05.424Z,4.30
2018-03-24T08:31:33.768Z,4.30
2018-03-24T08:34:02.839Z,4.10
2018-03-24T08:36:31.167Z,4.10
2018-03-24T08:39:00.275Z,4.20
2018-03-24T08:41:29.451Z,4.20
2018-03-24T08:43:57.867Z,4.20
2018-03-24T08:46:26.167Z,4.30
2018-03-24T08:48:55.286Z,4.60
2018-03-24T08:51:23.737Z,4.60
2018-03-24T08:53:53.019Z,4.80
2018-03-24T08:56:21.338Z,4.80
2018-03-24T08:58:49.702Z,4.90
2018-03-24T09:01:18.134Z,4.90
2018-03-24T09:03:47.273Z,4.70
2018-03-24T09:06:15.850Z,4.70
2018-03-24T09:08:44.226Z,4.80
2018-03-24T09:11:12.764Z,5.00
2018-03-24T09:13:41.282Z,5.10
2018-03-24T09:16:09.738Z,5.20
2018-03-24T09:18:38.994Z,5.30
2018-03-24T09:21:07.407Z,5.30
2018-03-24T09:23:35.744Z,5.40
2018-03-24T09:26:04.190Z,5.60
2018-03-24T09:28:32.496Z,5.60
2018-03-24T09:31:01.178Z,5.80
2018-03-24T09:33:29.493Z,6.00
2018-03-24T09:35:57.813Z,5.90
2018-03-24T09:38:26.899Z,5.90
2018-03-24T09:40:55.200Z,5.90
2018-03-24T09:43:24.350Z,6.00
2018-03-24T09:45:52.779Z,5.90
2018-03-24T09:48:21.099Z,6.00
2018-03-24T09:50:51.527Z,6.10
2018-03-24T09:53:20.406Z,6.10
2018-03-24T09:55:48.940Z,6.10
2018-03-24T09:58:18.027Z,6.40
2018-03-24T10:00:46.409Z,6.30
2018-03-24T10:03:14.769Z,6.30
2018-03-24T10:05:43.129Z,6.30
2018-03-24T10:08:11.987Z,6.30
2018-03-24T10:10:40.528Z,6.50
2018-03-24T10:13:09.787Z,6.80
2018-03-24T10:15:38.642Z,6.80
2018-03-24T10:18:07.159Z,6.80
2018-03-24T10:23:49.797Z,7.50
2018-03-24T10:26:18.302Z,7.40
2018-03-24T10:28:46.703Z,7.70
2018-03-24T10:31:15.127Z,7.80
2018-03-24T10:33:49.227Z,7.70
2018-03-24T10:36:17.580Z,7.60
2018-03-24T10:38:46.811Z,8.00
2018-03-24T10:41:15.262Z,7.90
2018-03-24T10:43:43.756Z,7.70
2018-03-24T10:46:13.617Z,7.20
2018-03-24T10:48:42.869Z,7.20
2018-03-24T10:51:11.500Z,7.10
2018-03-24T10:53:39.968Z,6.90
2018-03-24T10:56:08.357Z,6.80
2018-03-24T10:58:36.781Z,6.60
2018-03-24T11:01:10.833Z,6.70
2018-03-24T11:03:39.207Z,6.90
2018-03-24T11:06:08.411Z,7.00
2018-03-24T11:08:36.810Z,7.00
2018-03-24T11:11:05.898Z,7.10
2018-03-24T11:13:34.354Z,7.10
2018-03-24T11:16:02.664Z,7.00
2018-03-24T11:18:30.981Z,6.70
2018-03-24T11:20:59.287Z,6.80
2018-03-24T11:23:28.371Z,6.50
2018-03-24T11:25:56.743Z,6.50
2018-03-24T11:28:25.066Z,6.40
2018-03-24T11:30:53.380Z,6.50
2018-03-24T11:33:22.464Z,6.80
2018-03-24T11:35:50.804Z,6.80
2018-03-24T11:38:19.883Z,6.70
2018-03-24T11:40:48.960Z,6.50
2018-03-24T11:43:17.340Z,6.50
2018-03-24T11:45:45.710Z,6.50
2018-03-24T11:48:14.133Z,6.60
2018-03-24T11:50:42.510Z,6.70
2018-03-24T11:53:10.900Z,7.00
2018-03-24T11:55:39.363Z,7.10
2018-03-24T11:58:07.806Z,7.20
2018-03-24T12:00:36.975Z,7.50
2018-03-24T12:03:05.350Z,7.50
2018-03-24T12:05:33.700Z,7.60
2018-03-24T12:08:03.094Z,7.20
2018-03-24T12:10:31.526Z,7.20
2018-03-24T12:12:59.908Z,7.20
2018-03-24T12:15:29.017Z,6.70
2018-03-24T12:17:57.367Z,6.70
2018-03-24T12:20:25.715Z,6.70
2018-03-24T12:22:54.083Z,6.70
2018-03-24T12:25:22.461Z,6.60
2018-03-24T12:27:50.778Z,6.40
2018-03-24T12:30:19.175Z,6.30
2018-03-24T12:32:47.495Z,6.30
2018-03-24T12:35:15.931Z,6.60
2018-03-24T12:37:44.288Z,6.80
2018-03-24T12:40:12.620Z,6.90
2018-03-24T12:42:41.022Z,7.10
2018-03-24T12:45:10.348Z,7.30
2018-03-24T12:47:39.228Z,7.30
2018-03-24T12:50:07.998Z,7.30
2018-03-24T12:52:36.714Z,7.30
2018-03-24T12:55:05.179Z,7.20
2018-03-24T12:57:33.669Z,7.00
2018-03-24T13:00:02.372Z,6.90
2018-03-24T13:02:31.069Z,6.90
2018-03-24T13:04:59.405Z,6.70
2018-03-24T13:07:27.829Z,6.90
2018-03-24T13:09:56.937Z,7.50
2018-03-24T13:12:26.114Z,7.60
2018-03-24T13:14:54.432Z,7.60
2018-03-24T13:17:23.734Z,7.50
2018-03-24T13:19:52.047Z,7.50
2018-03-24T13:22:21.120Z,7.50
2018-03-24T13:24:49.424Z,7.50
2018-03-24T13:27:17.738Z,7.40
2018-03-24T13:29:46.915Z,7.50
2018-03-24T13:32:15.266Z,7.50
2018-03-24T13:34:44.640Z,7.80
2018-03-24T13:37:13.790Z,8.20
2018-03-24T13:39:42.922Z,9.00
2018-03-24T13:42:11.671Z,9.00
2018-03-24T13:44:40.998Z,10.40
2018-03-24T13:47:09.476Z,10.40
2018-03-24T13:49:38.084Z,10.40
2018-03-24T13:52:06.577Z,9.90
2018-03-24T13:54:35.739Z,10.10
2018-03-24T13:57:04.173Z,10.10
2018-03-24T13:59:33.271Z,11.60
2018-03-24T14:02:01.639Z,11.60
2018-03-24T14:04:30.017Z,12.30
2018-03-24T14:06:58.457Z,12.30
2018-03-24T14:09:27.581Z,12.70
2018-03-24T14:11:56.720Z,12.60
2018-03-24T14:14:25.146Z,12.60
2018-03-24T14:16:53.501Z,12.30
2018-03-24T14:19:21.926Z,11.30
2018-03-24T14:21:50.298Z,10.70
2018-03-24T14:24:18.632Z,10.40
2018-03-24T14:26:47.725Z,9.40
2018-03-24T14:29:16.196Z,9.40
2018-03-24T14:31:44.755Z,8.90
2018-03-24T14:34:13.147Z,8.90
2018-03-24T14:36:42.362Z,8.80
2018-03-24T14:39:10.972Z,8.80
2018-03-24T14:41:49.599Z,8.40
2018-03-24T14:44:18.196Z,8.50
2018-03-24T14:46:47.493Z,8.70
2018-03-24T14:49:16.160Z,8.70
2018-03-24T14:51:45.737Z,8.40
2018-03-24T14:54:14.189Z,8.40
2018-03-24T14:56:43.425Z,9.00
2018-03-24T14:59:11.906Z,9.00
2018-03-24T15:01:40.465Z,9.80
2018-03-24T15:04:09.386Z,10.30
2018-03-24T15:06:38.845Z,11.00
2018-03-24T15:09:07.376Z,11.00
2018-03-24T15:11:35.847Z,11.50
2018-03-24T15:14:04.236Z,11.50
2018-03-24T15:16:32.653Z,10.70
2018-03-24T15:19:00.999Z,10.10
2018-03-24T15:21:29.344Z,10.10
2018-03-24T15:23:57.653Z,10.40
2018-03-24T15:26:25.973Z,11.00
2018-03-24T15:32:12.317Z,12.60
2018-03-24T15:34:52.597Z,12.60
2018-03-24T15:37:20.936Z,12.20
2018-03-24T15:39:49.284Z,11.80
2018-03-24T15:42:17.636Z,12.00
2018-03-24T15:44:48.112Z,12.30
2018-03-24T15:47:16.591Z,12.70
2018-03-24T15:49:45.718Z,12.70
2018-03-24T15:52:15.010Z,12.40
2018-03-24T15:54:44.214Z,12.20
2018-03-24T15:57:13.418Z,11.20
2018-03-24T15:59:42.772Z,10.30
2018-03-24T16:02:11.367Z,10.30
2018-03-24T16:04:39.972Z,10.20
2018-03-24T16:07:09.506Z,10.00
2018-03-24T16:09:38.754Z,9.90
2018-03-24T16:12:07.558Z,9.90
2018-03-24T16:14:36.019Z,9.30
2018-03-24T16:17:04.403Z,8.90
2018-03-24T16:19:32.748Z,8.50
2018-03-24T16:22:01.860Z,8.40
2018-03-24T16:24:30.321Z,8.40
2018-03-24T16:26:58.686Z,8.10
2018-03-24T16:29:27.439Z,8.00
2018-03-24T16:31:55.778Z,7.80
2018-03-24T16:34:24.112Z,8.00
2018-03-24T16:36:53.596Z,7.80
2018-03-24T16:39:21.964Z,7.70
2018-03-24T16:41:51.066Z,7.20
2018-03-24T16:44:20.223Z,7.10
2018-03-24T16:46:48.708Z,7.10
2018-03-24T16:49:17.347Z,7.10
2018-03-24T16:51:45.888Z,6.90
2018-03-24T16:54:14.381Z,6.70
2018-03-24T16:56:43.427Z,6.50
2018-03-24T16:59:12.241Z,6.50
2018-03-24T17:01:41.679Z,6.40
2018-03-24T17:04:10.813Z,6.40
2018-03-24T17:06:40.213Z,5.90
2018-03-24T17:09:09.042Z,5.90
2018-03-24T17:11:37.668Z,5.60
2018-03-24T17:14:06.535Z,5.30
2018-03-24T17:16:34.925Z,5.00
2018-03-24T17:19:03.997Z,4.60
2018-03-24T17:21:33.097Z,4.40
2018-03-24T17:24:01.443Z,4.40
2018-03-24T17:26:29.791Z,4.20
2018-03-24T17:28:58.111Z,4.00
2018-03-24T17:31:26.502Z,3.90
2018-03-24T17:33:55.621Z,3.60
2018-03-24T17:36:23.927Z,3.60
2018-03-24T17:38:53.002Z,3.30
2018-03-24T17:41:22.084Z,3.10
2018-03-24T17:43:51.228Z,2.90
2018-03-24T17:46:20.324Z,2.70
2018-03-24T17:48:49.443Z,2.50
2018-03-24T17:51:18.505Z,2.40
2018-03-24T17:53:46.864Z,2.40
2018-03-24T17:56:15.558Z,2.20
2018-03-24T17:58:43.947Z,2.00
2018-03-24T18:01:12.342Z,1.80
2018-03-24T18:03:40.676Z,1.50
2018-03-24T18:06:08.992Z,1.30
2018-03-24T18:08:38.223Z,1.00
2018-03-24T18:11:07.377Z,1.00
2018-03-24T18:13:35.815Z,0.90
2018-03-24T18:16:05.009Z,0.80
2018-03-24T18:18:34.235Z,0.60
2018-03-24T18:21:03.622Z,0.60
2018-03-24T18:23:32.129Z,0.50
2018-03-24T18:26:01.465Z,0.20
2018-03-24T18:28:30.213Z,0.20
2018-03-24T18:30:59.538Z,0.20
2018-03-24T18:33:27.992Z,0.10
2018-03-24T18:35:56.413Z,0.10
2018-03-24T18:38:24.796Z,0.00
2018-03-24T18:40:53.934Z,-0.20
2018-03-24T18:43:22.363Z,-0.30
2018-03-24T18:45:50.695Z,-0.30
2018-03-24T18:48:19.007Z,-0.40
2018-03-24T18:50:47.355Z,-0.40
2018-03-24T18:53:15.684Z,-0.50
2018-03-24T18:55:44.155Z,-0.50
2018-03-24T18:58:12.470Z,-0.60
2018-03-24T19:00:41.575Z,-0.70
2018-03-24T19:03:10.090Z,-0.70
2018-03-24T19:05:39.252Z,-0.80
2018-03-24T19:08:08.303Z,-0.80
2018-03-24T19:10:37.603Z,-1.00
2018-03-24T19:13:06.115Z,-1.00
2018-03-24T19:15:34.519Z,-1.10
2018-03-24T19:18:03.762Z,-1.20
2018-03-24T19:20:32.292Z,-1.20
2018-03-24T19:23:00.923Z,-1.30
2018-03-24T19:25:30.847Z,-1.40
2018-03-24T19:27:59.491Z,-1.50
2018-03-24T19:30:27.962Z,-1.50
2018-03-24T19:32:56.303Z,-1.50
2018-03-24T19:35:24.625Z,-1.60
2018-03-24T19:37:52.996Z,-1.60
2018-03-24T19:40:21.300Z,-1.60
2018-03-24T19:42:50.412Z,-1.60
2018-03-24T19:45:18.740Z,-1.60
2018-03-24T19:47:47.224Z,-1.60
2018-03-24T19:50:15.655Z,-1.60
2018-03-24T19:52:44.012Z,-1.70
2018-03-24T19:55:12.364Z,-1.80
2018-03-24T19:57:40.763Z,-1.80
2018-03-24T20:00:09.215Z,-1.90
2018-03-24T20:02:37.625Z,-2.00
2018-03-24T20:05:06.117Z,-2.00
2018-03-24T20:07:35.243Z,-2.00
2018-03-24T20:10:03.910Z,-2.00
2018-03-24T20:12:32.433Z,-2.00
2018-03-24T20:15:01.692Z,-2.10
2018-03-24T20:17:30.307Z,-2.10
2018-03-24T20:19:58.652Z,-2.20
2018-03-24T20:22:27.059Z,-2.20
2018-03-24T20:24:56.144Z,-2.20
2018-03-24T20:27:24.571Z,-2.20
2018-03-24T20:29:52.932Z,-2.20
2018-03-24T20:32:22.024Z,-2.30
2018-03-24T20:34:50.350Z,-2.30
2018-03-24T20:37:19.462Z,-2.30
2018-03-24T20:39:47.824Z,-2.30
2018-03-24T20:42:16.222Z,-2.40
2018-03-24T20:44:44.537Z,-2.40
2018-03-24T20:47:13.667Z,-2.40
2018-03-24T20:49:42.011Z,-2.50
2018-03-24T20:52:10.500Z,-2.40
2018-03-24T20:54:38.855Z,-2.40
2018-03-24T20:57:07.262Z,-2.40
2018-03-24T20:59:35.639Z,-2.50
2018-03-24T21:02:04.054Z,-2.50
2018-03-24T21:04:32.496Z,-2.50
2018-03-24T21:07:01.686Z,-2.60
2018-03-24T21:09:30.870Z,-2.60
2018-03-24T21:11:59.285Z,-2.60
2018-03-24T21:14:28.496Z,-2.60
2018-03-24T21:16:57.645Z,-2.60
2018-03-24T21:19:25.962Z,-2.60
2018-03-24T21:21:54.298Z,-2.70
2018-03-24T21:24:23.398Z,-2.40
2018-03-24T21:26:51.743Z,-2.40
2018-03-24T21:29:20.082Z,-2.50
2018-03-24T21:31:49.185Z,-2.50
2018-03-24T21:34:17.563Z,-2.50
2018-03-24T21:36:45.917Z,-2.50
2018-03-24T21:39:14.232Z,-2.60
2018-03-24T21:41:42.607Z,-2.70
2018-03-24T21:44:10.968Z,-2.70
2018-03-24T21:46:40.130Z,-2.60
2018-03-24T21:49:08.396Z,-2.60
2018-03-24T21:51:36.821Z,-2.70
2018-03-24T21:54:05.201Z,-2.70
2018-03-24T21:56:35.783Z,-2.70
2018-03-24T21:59:04.993Z,-2.70
2018-03-24T22:01:34.192Z,-2.70
2018-03-24T22:04:03.455Z,-2.70
2018-03-24T22:06:31.908Z,-2.80
2018-03-24T22:09:00.309Z,-2.70
2018-03-24T22:11:28.736Z,-2.70
2018-03-24T22:13:57.128Z,-2.80
2018-03-24T22:16:25.666Z,-2.80
2018-03-24T22:18:54.038Z,-2.80
2018-03-24T22:21:22.465Z,-2.80
2018-03-24T22:23:51.681Z,-2.80
2018-03-24T22:26:20.856Z,-2.80
2018-03-24T22:28:49.261Z,-2.80
2018-03-24T22:31:17.587Z,-2.90
2018-03-24T22:33:45.956Z,-2.90
2018-03-24T22:36:14.300Z,-2.90
2018-03-24T22:38:42.650Z,-2.90
2018-03-24T22:41:11.818Z,-2.90
2018-03-24T22:43:40.163Z,-2.90
2018-03-24T22:46:09.331Z,-2.70
2018-03-24T22:48:37.756Z,-2.80
2018-03-24T22:51:06.964Z,-2.80
2018-03-24T22:53:36.180Z,-2.80
2018-03-24T22:56:05.361Z,-2.80
2018-03-24T22:58:33.811Z,-2.90
2018-03-24T23:01:02.239Z,-2.90
2018-03-24T23:03:30.727Z,-2.90
2018-03-24T23:05:59.971Z,-2.90
2018-03-24T23:08:28.341Z,-2.90
2018-03-24T23:10:56.747Z,-2.90
2018-03-24T23:13:25.098Z,-3.00
2018-03-24T23:15:53.512Z,-3.10
2018-03-24T23:18:21.912Z,-3.00
2018-03-24T23:20:50.266Z,-3.10
2018-03-24T23:23:18.601Z,-3.10
2018-03-24T23:25:47.698Z,-3.10
2018-03-24T23:28:16.044Z,-3.20
2018-03-24T23:30:44.747Z,-3.20
2018-03-24T23:33:13.067Z,-3.30
2018-03-24T23:35:41.407Z,-3.30
2018-03-24T23:38:10.482Z,-3.30
2018-03-24T23:40:38.849Z,-3.30
2018-03-24T23:43:07.206Z,-3.30
2018-03-24T23:45:35.562Z,-3.30
2018-03-24T23:48:04.217Z,-3.30
2018-03-24T23:50:32.586Z,-3.20
2018-03-24T23:53:01.817Z,-3.20
2018-03-24T23:55:30.338Z,-3.20
2018-03-24T23:57:58.843Z,-3.30
